Kang Sheng — VRXL3 — position and weather

sailwx.info

Track history (hours):
 
Tides and Currents Weather Stations Pressure Air Temp Water Temp Dewpoint Dewpoint Depression Visibility Wind Speed Wind Dir Waves Ship Positions

Kang Sheng

Last reported at 2017-Mar-16 00:33 UTC. Time now 2017-Jun-29 10:45 UTC.
Position N 32°01' E 120°23'.
Warning: this ship's position is months out of date.

Length 190 m; draft 6.2 m.

Type: Cargo ship. MMSI: 477977000.

Date/timePositionNaut miles runAvg speedWind from/ knotsBaromVisibWave heightAir tempDewpointWater temp
2017-Mar-16 00:33N 32°01' E 120°23'1110.6
2017-Mar-15 23:33N 32°01' E 120°35'2210.3
2017-Mar-15 21:22N 31°47' E 120°56'910.7
2017-Mar-15 20:33N 31°45' E 121°06'1313.0
2017-Mar-15 19:33N 31°36' E 121°17'1212.4
2017-Mar-15 18:33N 31°28' E 121°28'8 8.2
2017-Mar-15 17:33N 31°23' E 121°36'10 9.7
2017-Mar-15 16:34N 31°17' E 121°45'1514.9
2017-Mar-15 15:33N 31°07' E 121°57'1111.0
2017-Mar-15 14:34N 31°03' E 122°10'7 7.1
2017-Mar-15 13:33N 31°03' E 122°18'5 5.0
2017-Mar-15 12:34N 31°02' E 122°24'  
2017-Mar-11 04:21N 30°49' E 122°32'0 0.0
2017-Mar-09 17:09N 30°48' E 122°32'  
Track history (hours):
 
Tides and Currents Weather Stations Pressure Air Temp Water Temp Dewpoint Dewpoint Depression Visibility Wind Speed Wind Dir Waves Ship Positions

Kang Sheng

Last reported at 2017-Mar-16 00:33 UTC. Time now 2017-Jun-29 10:45 UTC.
Position N 32°01' E 120°23'.
Warning: this ship's position is months out of date.

Length 190 m; draft 6.2 m.

Type: Cargo ship. MMSI: 477977000.

Date/timePositionNaut miles runAvg speedWind from/ knotsBaromVisibWave heightAir tempDewpointWater temp
2017-Mar-16 00:33N 32°01' E 120°23'1110.6
2017-Mar-15 23:33N 32°01' E 120°35'2210.3
2017-Mar-15 21:22N 31°47' E 120°56'910.7
2017-Mar-15 20:33N 31°45' E 121°06'1313.0
2017-Mar-15 19:33N 31°36' E 121°17'1212.4
2017-Mar-15 18:33N 31°28' E 121°28'8 8.2
2017-Mar-15 17:33N 31°23' E 121°36'10 9.7
2017-Mar-15 16:34N 31°17' E 121°45'1514.9
2017-Mar-15 15:33N 31°07' E 121°57'1111.0
2017-Mar-15 14:34N 31°03' E 122°10'7 7.1
2017-Mar-15 13:33N 31°03' E 122°18'5 5.0
2017-Mar-15 12:34N 31°02' E 122°24'  
2017-Mar-11 04:21N 30°49' E 122°32'0 0.0
2017-Mar-09 17:09N 30°48' E 122°32'  

Dump ship's entire track history